sensor_id;sensor_type;location;lat;lon;timestamp;P1;durP1;ratioP1;P2;durP2;ratioP2
42832;SDS011;64089;51.478;5.692;2024-02-26T00:01:37;5.90;;;2.00;;
42832;SDS011;64089;51.478;5.692;2024-02-26T00:04:02;13.27;;;2.65;;
42832;SDS011;64089;51.478;5.692;2024-02-26T00:06:29;5.13;;;2.42;;
42832;SDS011;64089;51.478;5.692;2024-02-26T00:08:55;9.10;;;2.50;;
42832;SDS011;64089;51.478;5.692;2024-02-26T00:11:20;3.67;;;2.08;;
42832;SDS011;64089;51.478;5.692;2024-02-26T00:13:46;6.57;;;1.75;;
42832;SDS011;64089;51.478;5.692;2024-02-26T00:16:12;3.92;;;1.90;;
42832;SDS011;64089;51.478;5.692;2024-02-26T00:18:37;9.32;;;2.63;;
42832;SDS011;64089;51.478;5.692;2024-02-26T00:21:06;4.13;;;1.90;;
42832;SDS011;64089;51.478;5.692;2024-02-26T00:23:31;6.20;;;2.42;;
42832;SDS011;64089;51.478;5.692;2024-02-26T00:25:57;4.07;;;2.00;;
42832;SDS011;64089;51.478;5.692;2024-02-26T00:28:23;4.97;;;1.95;;
42832;SDS011;64089;51.478;5.692;2024-02-26T00:30:49;3.67;;;1.80;;
42832;SDS011;64089;51.478;5.692;2024-02-26T00:33:20;3.08;;;1.55;;
42832;SDS011;64089;51.478;5.692;2024-02-26T00:35:46;3.38;;;2.00;;
42832;SDS011;64089;51.478;5.692;2024-02-26T00:38:12;6.53;;;2.65;;
42832;SDS011;64089;51.478;5.692;2024-02-26T00:40:41;5.10;;;2.05;;
42832;SDS011;64089;51.478;5.692;2024-02-26T00:43:09;7.20;;;2.38;;
42832;SDS011;64089;51.478;5.692;2024-02-26T00:45:35;5.32;;;2.05;;
42832;SDS011;64089;51.478;5.692;2024-02-26T00:48:01;4.97;;;2.15;;
42832;SDS011;64089;51.478;5.692;2024-02-26T00:50:29;2.88;;;1.83;;
42832;SDS011;64089;51.478;5.692;2024-02-26T00:53:05;3.72;;;1.95;;
42832;SDS011;64089;51.478;5.692;2024-02-26T00:55:30;3.55;;;1.83;;
42832;SDS011;64089;51.478;5.692;2024-02-26T00:57:56;4.63;;;2.20;;
42832;SDS011;64089;51.478;5.692;2024-02-26T01:00:21;9.95;;;1.80;;
42832;SDS011;64089;51.478;5.692;2024-02-26T01:02:47;4.32;;;2.53;;
42832;SDS011;64089;51.478;5.692;2024-02-26T01:05:13;3.20;;;1.50;;
42832;SDS011;64089;51.478;5.692;2024-02-26T01:07:39;4.70;;;1.88;;
42832;SDS011;64089;51.478;5.692;2024-02-26T01:10:06;2.80;;;1.67;;
42832;SDS011;64089;51.478;5.692;2024-02-26T01:12:32;2.38;;;1.50;;
42832;SDS011;64089;51.478;5.692;2024-02-26T01:14:59;2.85;;;1.60;;
42832;SDS011;64089;51.478;5.692;2024-02-26T01:17:25;2.38;;;1.58;;
42832;SDS011;64089;51.478;5.692;2024-02-26T01:19:50;4.93;;;1.85;;
42832;SDS011;64089;51.478;5.692;2024-02-26T01:22:17;3.75;;;2.00;;
42832;SDS011;64089;51.478;5.692;2024-02-26T01:24:43;3.08;;;1.58;;
42832;SDS011;64089;51.478;5.692;2024-02-26T01:27:09;2.30;;;1.70;;
42832;SDS011;64089;51.478;5.692;2024-02-26T01:29:34;2.17;;;1.60;;
42832;SDS011;64089;51.478;5.692;2024-02-26T01:32:00;3.20;;;1.85;;
42832;SDS011;64089;51.478;5.692;2024-02-26T01:34:26;3.85;;;2.05;;
42832;SDS011;64089;51.478;5.692;2024-02-26T01:36:51;6.03;;;1.85;;
42832;SDS011;64089;51.478;5.692;2024-02-26T01:39:17;3.92;;;1.90;;
42832;SDS011;64089;51.478;5.692;2024-02-26T01:41:43;2.72;;;1.85;;
42832;SDS011;64089;51.478;5.692;2024-02-26T01:44:09;4.18;;;2.00;;
42832;SDS011;64089;51.478;5.692;2024-02-26T01:46:41;4.03;;;1.70;;
42832;SDS011;64089;51.478;5.692;2024-02-26T01:49:08;2.50;;;1.67;;
42832;SDS011;64089;51.478;5.692;2024-02-26T01:51:37;6.53;;;2.08;;
42832;SDS011;64089;51.478;5.692;2024-02-26T01:54:03;3.95;;;2.28;;
42832;SDS011;64089;51.478;5.692;2024-02-26T01:56:29;3.55;;;2.30;;
42832;SDS011;64089;51.478;5.692;2024-02-26T01:58:59;3.28;;;1.90;;
42832;SDS011;64089;51.478;5.692;2024-02-26T02:01:27;6.88;;;2.10;;
42832;SDS011;64089;51.478;5.692;2024-02-26T02:03:55;4.68;;;2.03;;
42832;SDS011;64089;51.478;5.692;2024-02-26T02:06:23;3.92;;;1.50;;
42832;SDS011;64089;51.478;5.692;2024-02-26T02:08:49;4.55;;;2.42;;
42832;SDS011;64089;51.478;5.692;2024-02-26T02:11:14;3.53;;;2.22;;
42832;SDS011;64089;51.478;5.692;2024-02-26T02:13:41;5.43;;;2.28;;
42832;SDS011;64089;51.478;5.692;2024-02-26T02:16:06;3.67;;;1.88;;
42832;SDS011;64089;51.478;5.692;2024-02-26T02:18:33;3.53;;;1.90;;
42832;SDS011;64089;51.478;5.692;2024-02-26T02:21:01;2.90;;;1.90;;
42832;SDS011;64089;51.478;5.692;2024-02-26T02:23:28;6.47;;;1.95;;
42832;SDS011;64089;51.478;5.692;2024-02-26T02:25:53;4.25;;;2.25;;
42832;SDS011;64089;51.478;5.692;2024-02-26T02:28:21;2.88;;;2.30;;
42832;SDS011;64089;51.478;5.692;2024-02-26T02:30:47;3.25;;;2.13;;
42832;SDS011;64089;51.478;5.692;2024-02-26T02:33:13;7.03;;;2.25;;
42832;SDS011;64089;51.478;5.692;2024-02-26T02:35:40;4.13;;;1.98;;
42832;SDS011;64089;51.478;5.692;2024-02-26T02:38:06;3.72;;;2.03;;
42832;SDS011;64089;51.478;5.692;2024-02-26T02:40:32;5.60;;;2.15;;
42832;SDS011;64089;51.478;5.692;2024-02-26T02:42:57;2.92;;;2.17;;
42832;SDS011;64089;51.478;5.692;2024-02-26T02:45:23;2.22;;;1.50;;
42832;SDS011;64089;51.478;5.692;2024-02-26T02:47:49;3.10;;;1.98;;
42832;SDS011;64089;51.478;5.692;2024-02-26T02:50:15;4.45;;;2.30;;
42832;SDS011;64089;51.478;5.692;2024-02-26T02:52:41;4.05;;;2.10;;
42832;SDS011;64089;51.478;5.692;2024-02-26T02:55:06;2.17;;;1.90;;
42832;SDS011;64089;51.478;5.692;2024-02-26T02:57:32;3.95;;;2.05;;
42832;SDS011;64089;51.478;5.692;2024-02-26T02:59:58;2.20;;;1.63;;
42832;SDS011;64089;51.478;5.692;2024-02-26T03:02:24;3.28;;;1.83;;
42832;SDS011;64089;51.478;5.692;2024-02-26T03:04:52;1.55;;;1.33;;
42832;SDS011;64089;51.478;5.692;2024-02-26T03:07:18;6.47;;;2.47;;
42832;SDS011;64089;51.478;5.692;2024-02-26T03:09:43;2.83;;;1.67;;
42832;SDS011;64089;51.478;5.692;2024-02-26T03:12:09;5.65;;;2.50;;
42832;SDS011;64089;51.478;5.692;2024-02-26T03:14:34;3.50;;;2.20;;
42832;SDS011;64089;51.478;5.692;2024-02-26T03:17:00;4.28;;;2.30;;
42832;SDS011;64089;51.478;5.692;2024-02-26T03:19:26;4.00;;;2.15;;
42832;SDS011;64089;51.478;5.692;2024-02-26T03:21:51;3.90;;;2.40;;
42832;SDS011;64089;51.478;5.692;2024-02-26T03:24:17;3.65;;;1.70;;
42832;SDS011;64089;51.478;5.692;2024-02-26T03:26:43;2.88;;;1.80;;
42832;SDS011;64089;51.478;5.692;2024-02-26T03:29:08;5.72;;;2.15;;
42832;SDS011;64089;51.478;5.692;2024-02-26T03:31:34;4.13;;;2.30;;
42832;SDS011;64089;51.478;5.692;2024-02-26T03:33:59;5.43;;;1.67;;
42832;SDS011;64089;51.478;5.692;2024-02-26T03:36:25;3.83;;;2.40;;
42832;SDS011;64089;51.478;5.692;2024-02-26T03:38:51;3.85;;;2.33;;
42832;SDS011;64089;51.478;5.692;2024-02-26T03:41:17;6.50;;;2.45;;
42832;SDS011;64089;51.478;5.692;2024-02-26T03:43:43;3.13;;;1.98;;
42832;SDS011;64089;51.478;5.692;2024-02-26T03:46:10;3.75;;;2.30;;
42832;SDS011;64089;51.478;5.692;2024-02-26T03:48:37;2.90;;;2.20;;
42832;SDS011;64089;51.478;5.692;2024-02-26T03:51:03;2.80;;;1.85;;
42832;SDS011;64089;51.478;5.692;2024-02-26T03:53:29;4.10;;;2.35;;
42832;SDS011;64089;51.478;5.692;2024-02-26T03:55:54;2.85;;;1.90;;
42832;SDS011;64089;51.478;5.692;2024-02-26T03:58:20;4.35;;;1.98;;
42832;SDS011;64089;51.478;5.692;2024-02-26T04:00:46;3.45;;;2.50;;
42832;SDS011;64089;51.478;5.692;2024-02-26T04:03:14;3.78;;;2.00;;
42832;SDS011;64089;51.478;5.692;2024-02-26T04:05:40;4.30;;;2.08;;
42832;SDS011;64089;51.478;5.692;2024-02-26T04:08:06;5.80;;;2.05;;
42832;SDS011;64089;51.478;5.692;2024-02-26T04:10:35;7.50;;;2.25;;
42832;SDS011;64089;51.478;5.692;2024-02-26T04:13:04;2.50;;;1.90;;
42832;SDS011;64089;51.478;5.692;2024-02-26T04:15:30;5.68;;;2.20;;
42832;SDS011;64089;51.478;5.692;2024-02-26T04:17:56;4.30;;;2.45;;
42832;SDS011;64089;51.478;5.692;2024-02-26T04:20:22;4.30;;;2.47;;
42832;SDS011;64089;51.478;5.692;2024-02-26T04:22:47;6.35;;;3.00;;
42832;SDS011;64089;51.478;5.692;2024-02-26T04:25:13;3.60;;;2.65;;
42832;SDS011;64089;51.478;5.692;2024-02-26T04:27:39;4.15;;;2.40;;
42832;SDS011;64089;51.478;5.692;2024-02-26T04:30:05;3.10;;;2.10;;
42832;SDS011;64089;51.478;5.692;2024-02-26T04:32:31;3.08;;;2.38;;
42832;SDS011;64089;51.478;5.692;2024-02-26T04:34:57;4.28;;;2.40;;
42832;SDS011;64089;51.478;5.692;2024-02-26T04:37:22;5.55;;;3.13;;
42832;SDS011;64089;51.478;5.692;2024-02-26T04:39:48;3.55;;;2.60;;
42832;SDS011;64089;51.478;5.692;2024-02-26T04:42:14;5.47;;;2.53;;
42832;SDS011;64089;51.478;5.692;2024-02-26T04:44:39;5.35;;;2.65;;
42832;SDS011;64089;51.478;5.692;2024-02-26T04:47:05;8.68;;;2.63;;
42832;SDS011;64089;51.478;5.692;2024-02-26T04:49:32;4.57;;;2.90;;
42832;SDS011;64089;51.478;5.692;2024-02-26T04:51:59;3.13;;;2.28;;
42832;SDS011;64089;51.478;5.692;2024-02-26T04:54:24;7.35;;;3.13;;
42832;SDS011;64089;51.478;5.692;2024-02-26T04:56:50;4.85;;;3.05;;
42832;SDS011;64089;51.478;5.692;2024-02-26T04:59:15;4.90;;;3.42;;
42832;SDS011;64089;51.478;5.692;2024-02-26T05:01:41;3.65;;;2.85;;
42832;SDS011;64089;51.478;5.692;2024-02-26T05:04:06;6.35;;;3.00;;
42832;SDS011;64089;51.478;5.692;2024-02-26T05:06:32;4.10;;;2.88;;
42832;SDS011;64089;51.478;5.692;2024-02-26T05:08:57;6.78;;;2.78;;
42832;SDS011;64089;51.478;5.692;2024-02-26T05:11:23;3.70;;;2.72;;
42832;SDS011;64089;51.478;5.692;2024-02-26T05:13:49;4.15;;;2.65;;
42832;SDS011;64089;51.478;5.692;2024-02-26T05:16:14;3.78;;;2.67;;
42832;SDS011;64089;51.478;5.692;2024-02-26T05:18:40;4.28;;;3.20;;
42832;SDS011;64089;51.478;5.692;2024-02-26T05:21:05;4.43;;;2.75;;
42832;SDS011;64089;51.478;5.692;2024-02-26T05:23:31;4.50;;;3.08;;
42832;SDS011;64089;51.478;5.692;2024-02-26T05:25:57;4.13;;;2.72;;
42832;SDS011;64089;51.478;5.692;2024-02-26T05:28:22;6.93;;;2.90;;
42832;SDS011;64089;51.478;5.692;2024-02-26T05:30:48;3.83;;;2.50;;
42832;SDS011;64089;51.478;5.692;2024-02-26T05:33:13;5.97;;;3.20;;
42832;SDS011;64089;51.478;5.692;2024-02-26T05:35:39;5.60;;;2.53;;
42832;SDS011;64089;51.478;5.692;2024-02-26T05:38:05;5.97;;;2.38;;
42832;SDS011;64089;51.478;5.692;2024-02-26T05:40:31;4.20;;;2.47;;
42832;SDS011;64089;51.478;5.692;2024-02-26T05:42:56;8.48;;;2.50;;
42832;SDS011;64089;51.478;5.692;2024-02-26T05:45:22;5.35;;;2.42;;
42832;SDS011;64089;51.478;5.692;2024-02-26T05:47:47;4.10;;;2.90;;
42832;SDS011;64089;51.478;5.692;2024-02-26T05:50:14;3.25;;;2.40;;
42832;SDS011;64089;51.478;5.692;2024-02-26T05:52:40;5.22;;;2.70;;
42832;SDS011;64089;51.478;5.692;2024-02-26T05:55:06;3.50;;;2.72;;
42832;SDS011;64089;51.478;5.692;2024-02-26T05:57:35;5.78;;;2.92;;
42832;SDS011;64089;51.478;5.692;2024-02-26T06:00:01;4.03;;;2.75;;
42832;SDS011;64089;51.478;5.692;2024-02-26T06:02:30;4.68;;;2.58;;
42832;SDS011;64089;51.478;5.692;2024-02-26T06:04:56;2.75;;;1.90;;
42832;SDS011;64089;51.478;5.692;2024-02-26T06:07:22;5.32;;;2.80;;
42832;SDS011;64089;51.478;5.692;2024-02-26T06:09:48;3.00;;;2.30;;
42832;SDS011;64089;51.478;5.692;2024-02-26T06:12:14;3.67;;;2.42;;
42832;SDS011;64089;51.478;5.692;2024-02-26T06:14:39;3.88;;;2.60;;
42832;SDS011;64089;51.478;5.692;2024-02-26T06:17:06;3.28;;;2.40;;
42832;SDS011;64089;51.478;5.692;2024-02-26T06:19:32;5.95;;;2.78;;
42832;SDS011;64089;51.478;5.692;2024-02-26T06:21:57;3.05;;;2.42;;
42832;SDS011;64089;51.478;5.692;2024-02-26T06:24:23;3.88;;;2.55;;
42832;SDS011;64089;51.478;5.692;2024-02-26T06:26:49;5.15;;;2.80;;
42832;SDS011;64089;51.478;5.692;2024-02-26T06:29:14;3.80;;;2.10;;
42832;SDS011;64089;51.478;5.692;2024-02-26T06:31:40;4.13;;;2.55;;
42832;SDS011;64089;51.478;5.692;2024-02-26T06:34:06;4.13;;;2.72;;
42832;SDS011;64089;51.478;5.692;2024-02-26T06:36:31;3.80;;;2.60;;
42832;SDS011;64089;51.478;5.692;2024-02-26T06:38:58;3.95;;;2.67;;
42832;SDS011;64089;51.478;5.692;2024-02-26T06:41:23;3.88;;;2.53;;
42832;SDS011;64089;51.478;5.692;2024-02-26T06:43:54;5.13;;;2.43;;
42832;SDS011;64089;51.478;5.692;2024-02-26T06:46:20;4.35;;;2.80;;
42832;SDS011;64089;51.478;5.692;2024-02-26T06:48:47;4.47;;;2.78;;
42832;SDS011;64089;51.478;5.692;2024-02-26T06:51:13;6.40;;;2.80;;
42832;SDS011;64089;51.478;5.692;2024-02-26T06:53:42;5.68;;;3.38;;
42832;SDS011;64089;51.478;5.692;2024-02-26T06:56:07;4.82;;;3.45;;
42832;SDS011;64089;51.478;5.692;2024-02-26T06:58:33;4.00;;;2.95;;
42832;SDS011;64089;51.478;5.692;2024-02-26T07:00:59;6.30;;;3.60;;
42832;SDS011;64089;51.478;5.692;2024-02-26T07:03:24;5.07;;;2.97;;
42832;SDS011;64089;51.478;5.692;2024-02-26T07:05:50;10.75;;;2.95;;
42832;SDS011;64089;51.478;5.692;2024-02-26T07:08:16;5.47;;;3.42;;
42832;SDS011;64089;51.478;5.692;2024-02-26T07:10:42;4.57;;;3.25;;
42832;SDS011;64089;51.478;5.692;2024-02-26T07:13:08;4.78;;;3.05;;
42832;SDS011;64089;51.478;5.692;2024-02-26T07:15:34;11.40;;;3.70;;
42832;SDS011;64089;51.478;5.692;2024-02-26T07:17:59;10.75;;;4.50;;
42832;SDS011;64089;51.478;5.692;2024-02-26T07:20:28;6.18;;;3.83;;
42832;SDS011;64089;51.478;5.692;2024-02-26T07:22:55;8.32;;;4.03;;
42832;SDS011;64089;51.478;5.692;2024-02-26T07:25:21;6.55;;;3.88;;
42832;SDS011;64089;51.478;5.692;2024-02-26T07:27:46;4.90;;;3.70;;
42832;SDS011;64089;51.478;5.692;2024-02-26T07:30:12;6.30;;;3.92;;
42832;SDS011;64089;51.478;5.692;2024-02-26T07:32:42;6.68;;;4.53;;
42832;SDS011;64089;51.478;5.692;2024-02-26T07:35:08;8.18;;;4.32;;
42832;SDS011;64089;51.478;5.692;2024-02-26T07:37:33;9.15;;;4.00;;
42832;SDS011;64089;51.478;5.692;2024-02-26T07:39:59;6.80;;;3.40;;
42832;SDS011;64089;51.478;5.692;2024-02-26T07:42:25;6.53;;;4.07;;
42832;SDS011;64089;51.478;5.692;2024-02-26T07:44:51;11.25;;;4.68;;
42832;SDS011;64089;51.478;5.692;2024-02-26T07:47:17;9.43;;;5.05;;
42832;SDS011;64089;51.478;5.692;2024-02-26T07:49:43;8.50;;;4.18;;
42832;SDS011;64089;51.478;5.692;2024-02-26T07:52:09;7.45;;;4.03;;
42832;SDS011;64089;51.478;5.692;2024-02-26T07:54:35;5.38;;;3.70;;
42832;SDS011;64089;51.478;5.692;2024-02-26T07:57:01;5.85;;;4.05;;
42832;SDS011;64089;51.478;5.692;2024-02-26T07:59:30;7.88;;;4.10;;
42832;SDS011;64089;51.478;5.692;2024-02-26T08:01:56;5.50;;;3.90;;
42832;SDS011;64089;51.478;5.692;2024-02-26T08:04:21;6.70;;;4.22;;
42832;SDS011;64089;51.478;5.692;2024-02-26T08:06:47;8.45;;;4.20;;
42832;SDS011;64089;51.478;5.692;2024-02-26T08:09:13;7.22;;;3.70;;
42832;SDS011;64089;51.478;5.692;2024-02-26T08:11:39;5.68;;;3.70;;
42832;SDS011;64089;51.478;5.692;2024-02-26T08:14:04;5.38;;;3.72;;
42832;SDS011;64089;51.478;5.692;2024-02-26T08:16:30;10.93;;;3.45;;
42832;SDS011;64089;51.478;5.692;2024-02-26T08:18:55;5.10;;;3.53;;
42832;SDS011;64089;51.478;5.692;2024-02-26T08:21:21;3.80;;;2.83;;
42832;SDS011;64089;51.478;5.692;2024-02-26T08:23:47;5.20;;;3.33;;
42832;SDS011;64089;51.478;5.692;2024-02-26T08:26:12;5.53;;;3.15;;
42832;SDS011;64089;51.478;5.692;2024-02-26T08:28:41;6.93;;;3.67;;
42832;SDS011;64089;51.478;5.692;2024-02-26T08:31:07;6.10;;;3.35;;
42832;SDS011;64089;51.478;5.692;2024-02-26T08:33:33;7.20;;;3.45;;
42832;SDS011;64089;51.478;5.692;2024-02-26T08:36:03;4.90;;;3.00;;
42832;SDS011;64089;51.478;5.692;2024-02-26T08:38:30;6.13;;;3.47;;
42832;SDS011;64089;51.478;5.692;2024-02-26T08:40:55;6.80;;;3.75;;
42832;SDS011;64089;51.478;5.692;2024-02-26T08:43:21;6.70;;;3.80;;
42832;SDS011;64089;51.478;5.692;2024-02-26T08:45:47;5.38;;;3.60;;
42832;SDS011;64089;51.478;5.692;2024-02-26T08:48:12;6.30;;;3.42;;
42832;SDS011;64089;51.478;5.692;2024-02-26T08:50:41;6.88;;;3.85;;
42832;SDS011;64089;51.478;5.692;2024-02-26T08:53:06;5.28;;;3.55;;
42832;SDS011;64089;51.478;5.692;2024-02-26T08:55:32;5.88;;;3.65;;
42832;SDS011;64089;51.478;5.692;2024-02-26T08:57:58;9.20;;;5.18;;
42832;SDS011;64089;51.478;5.692;2024-02-26T09:00:24;18.38;;;8.07;;
42832;SDS011;64089;51.478;5.692;2024-02-26T09:02:49;15.85;;;7.25;;
42832;SDS011;64089;51.478;5.692;2024-02-26T09:05:15;15.68;;;8.05;;
42832;SDS011;64089;51.478;5.692;2024-02-26T09:07:41;8.43;;;5.43;;
42832;SDS011;64089;51.478;5.692;2024-02-26T09:10:06;6.47;;;3.88;;
42832;SDS011;64089;51.478;5.692;2024-02-26T09:12:36;8.85;;;3.97;;
42832;SDS011;64089;51.478;5.692;2024-02-26T09:15:02;6.30;;;4.03;;
42832;SDS011;64089;51.478;5.692;2024-02-26T09:17:28;7.40;;;4.40;;
42832;SDS011;64089;51.478;5.692;2024-02-26T09:19:54;9.38;;;4.30;;
42832;SDS011;64089;51.478;5.692;2024-02-26T09:22:19;10.80;;;5.00;;
42832;SDS011;64089;51.478;5.692;2024-02-26T09:24:46;7.85;;;4.78;;
42832;SDS011;64089;51.478;5.692;2024-02-26T09:27:11;7.15;;;4.05;;
42832;SDS011;64089;51.478;5.692;2024-02-26T09:29:37;7.57;;;4.32;;
42832;SDS011;64089;51.478;5.692;2024-02-26T09:32:02;9.05;;;4.25;;
42832;SDS011;64089;51.478;5.692;2024-02-26T09:34:28;7.65;;;5.18;;
42832;SDS011;64089;51.478;5.692;2024-02-26T09:36:54;7.63;;;4.18;;
42832;SDS011;64089;51.478;5.692;2024-02-26T09:39:19;8.57;;;4.95;;
42832;SDS011;64089;51.478;5.692;2024-02-26T09:41:47;7.38;;;4.47;;
42832;SDS011;64089;51.478;5.692;2024-02-26T09:44:18;9.23;;;5.15;;
42832;SDS011;64089;51.478;5.692;2024-02-26T09:46:46;5.38;;;4.13;;
42832;SDS011;64089;51.478;5.692;2024-02-26T09:49:13;7.28;;;5.15;;
42832;SDS011;64089;51.478;5.692;2024-02-26T09:51:41;8.05;;;4.68;;
42832;SDS011;64089;51.478;5.692;2024-02-26T09:54:07;7.05;;;4.40;;
42832;SDS011;64089;51.478;5.692;2024-02-26T09:56:35;7.32;;;4.82;;
42832;SDS011;64089;51.478;5.692;2024-02-26T09:59:05;7.85;;;4.63;;
42832;SDS011;64089;51.478;5.692;2024-02-26T10:01:35;8.27;;;4.38;;
42832;SDS011;64089;51.478;5.692;2024-02-26T10:04:03;7.63;;;4.80;;
42832;SDS011;64089;51.478;5.692;2024-02-26T10:06:29;8.85;;;4.70;;
42832;SDS011;64089;51.478;5.692;2024-02-26T10:08:55;12.07;;;5.68;;
42832;SDS011;64089;51.478;5.692;2024-02-26T10:11:23;18.25;;;9.27;;
42832;SDS011;64089;51.478;5.692;2024-02-26T10:13:49;9.55;;;5.68;;
42832;SDS011;64089;51.478;5.692;2024-02-26T10:16:15;13.57;;;7.35;;
42832;SDS011;64089;51.478;5.692;2024-02-26T10:18:59;12.02;;;5.18;;
42832;SDS011;64089;51.478;5.692;2024-02-26T10:21:25;12.15;;;4.60;;
42832;SDS011;64089;51.478;5.692;2024-02-26T10:23:50;7.65;;;4.80;;
42832;SDS011;64089;51.478;5.692;2024-02-26T10:26:16;7.90;;;4.28;;
42832;SDS011;64089;51.478;5.692;2024-02-26T10:28:43;8.65;;;4.47;;
42832;SDS011;64089;51.478;5.692;2024-02-26T10:31:09;5.38;;;4.05;;
42832;SDS011;64089;51.478;5.692;2024-02-26T10:33:36;8.23;;;4.70;;
42832;SDS011;64089;51.478;5.692;2024-02-26T10:36:03;7.80;;;4.30;;
42832;SDS011;64089;51.478;5.692;2024-02-26T10:38:30;6.20;;;4.20;;
42832;SDS011;64089;51.478;5.692;2024-02-26T10:40:57;10.68;;;4.22;;
42832;SDS011;64089;51.478;5.692;2024-02-26T10:43:23;8.07;;;4.82;;
42832;SDS011;64089;51.478;5.692;2024-02-26T10:45:50;9.57;;;4.72;;
42832;SDS011;64089;51.478;5.692;2024-02-26T10:48:15;6.90;;;4.43;;
42832;SDS011;64089;51.478;5.692;2024-02-26T10:50:42;7.40;;;4.45;;
42832;SDS011;64089;51.478;5.692;2024-02-26T10:53:16;9.30;;;5.20;;
42832;SDS011;64089;51.478;5.692;2024-02-26T10:55:45;7.30;;;4.38;;
42832;SDS011;64089;51.478;5.692;2024-02-26T10:58:13;8.32;;;4.30;;
42832;SDS011;64089;51.478;5.692;2024-02-26T11:00:41;8.65;;;5.05;;
42832;SDS011;64089;51.478;5.692;2024-02-26T11:03:08;8.02;;;5.10;;
42832;SDS011;64089;51.478;5.692;2024-02-26T11:05:35;9.52;;;5.50;;
42832;SDS011;64089;51.478;5.692;2024-02-26T11:08:02;8.63;;;5.45;;
42832;SDS011;64089;51.478;5.692;2024-02-26T11:10:30;9.90;;;5.43;;
42832;SDS011;64089;51.478;5.692;2024-02-26T11:12:56;11.38;;;5.80;;
42832;SDS011;64089;51.478;5.692;2024-02-26T11:15:24;10.20;;;5.60;;
42832;SDS011;64089;51.478;5.692;2024-02-26T11:17:52;9.15;;;6.10;;
42832;SDS011;64089;51.478;5.692;2024-02-26T11:20:19;8.77;;;5.88;;
42832;SDS011;64089;51.478;5.692;2024-02-26T11:22:45;14.40;;;6.95;;
42832;SDS011;64089;51.478;5.692;2024-02-26T11:25:11;11.73;;;6.45;;
42832;SDS011;64089;51.478;5.692;2024-02-26T11:27:45;11.30;;;6.35;;
42832;SDS011;64089;51.478;5.692;2024-02-26T11:30:14;11.43;;;7.00;;
42832;SDS011;64089;51.478;5.692;2024-02-26T11:32:43;11.77;;;6.32;;
42832;SDS011;64089;51.478;5.692;2024-02-26T11:35:11;12.32;;;7.25;;
42832;SDS011;64089;51.478;5.692;2024-02-26T11:37:40;11.35;;;7.55;;
42832;SDS011;64089;51.478;5.692;2024-02-26T11:40:09;10.98;;;6.45;;
42832;SDS011;64089;51.478;5.692;2024-02-26T11:42:43;11.93;;;7.15;;
42832;SDS011;64089;51.478;5.692;2024-02-26T11:48:23;15.85;;;8.20;;
42832;SDS011;64089;51.478;5.692;2024-02-26T11:50:51;16.77;;;8.52;;
42832;SDS011;64089;51.478;5.692;2024-02-26T11:53:22;16.25;;;7.78;;
42832;SDS011;64089;51.478;5.692;2024-02-26T12:01:37;13.35;;;7.38;;
42832;SDS011;64089;51.478;5.692;2024-02-26T12:04:13;19.85;;;8.95;;
42832;SDS011;64089;51.478;5.692;2024-02-26T12:06:42;16.55;;;8.43;;
42832;SDS011;64089;51.478;5.692;2024-02-26T12:09:09;14.27;;;6.82;;
42832;SDS011;64089;51.478;5.692;2024-02-26T12:11:40;15.13;;;7.85;;
42832;SDS011;64089;51.478;5.692;2024-02-26T12:14:07;16.27;;;7.90;;
42832;SDS011;64089;51.478;5.692;2024-02-26T12:16:38;19.20;;;8.30;;
42832;SDS011;64089;51.478;5.692;2024-02-26T12:19:10;17.90;;;7.88;;
42832;SDS011;64089;51.478;5.692;2024-02-26T12:21:36;17.20;;;8.10;;
42832;SDS011;64089;51.478;5.692;2024-02-26T12:24:12;17.02;;;7.78;;
42832;SDS011;64089;51.478;5.692;2024-02-26T12:26:39;14.15;;;8.07;;
42832;SDS011;64089;51.478;5.692;2024-02-26T12:29:05;17.35;;;7.57;;
42832;SDS011;64089;51.478;5.692;2024-02-26T12:31:34;24.15;;;8.13;;
42832;SDS011;64089;51.478;5.692;2024-02-26T12:34:06;15.30;;;7.60;;
42832;SDS011;64089;51.478;5.692;2024-02-26T12:36:33;20.10;;;7.35;;
42832;SDS011;64089;51.478;5.692;2024-02-26T12:39:00;20.38;;;8.35;;
42832;SDS011;64089;51.478;5.692;2024-02-26T12:41:27;24.27;;;8.68;;
42832;SDS011;64089;51.478;5.692;2024-02-26T12:43:54;21.40;;;8.77;;
42832;SDS011;64089;51.478;5.692;2024-02-26T12:46:20;17.52;;;8.13;;
42832;SDS011;64089;51.478;5.692;2024-02-26T12:48:46;17.38;;;8.07;;
42832;SDS011;64089;51.478;5.692;2024-02-26T12:51:12;19.92;;;8.70;;
42832;SDS011;64089;51.478;5.692;2024-02-26T12:53:40;23.13;;;8.35;;
42832;SDS011;64089;51.478;5.692;2024-02-26T12:56:09;23.63;;;9.38;;
42832;SDS011;64089;51.478;5.692;2024-02-26T12:58:37;21.98;;;8.90;;
42832;SDS011;64089;51.478;5.692;2024-02-26T13:01:04;21.92;;;10.43;;
42832;SDS011;64089;51.478;5.692;2024-02-26T13:03:31;24.45;;;8.80;;
42832;SDS011;64089;51.478;5.692;2024-02-26T13:05:59;24.42;;;9.70;;
42832;SDS011;64089;51.478;5.692;2024-02-26T13:08:25;23.73;;;9.80;;
42832;SDS011;64089;51.478;5.692;2024-02-26T13:10:50;26.10;;;10.57;;
42832;SDS011;64089;51.478;5.692;2024-02-26T13:13:17;19.08;;;9.48;;
42832;SDS011;64089;51.478;5.692;2024-02-26T13:15:43;26.27;;;10.02;;
42832;SDS011;64089;51.478;5.692;2024-02-26T13:18:12;27.42;;;9.75;;
42832;SDS011;64089;51.478;5.692;2024-02-26T13:20:39;26.02;;;10.68;;
42832;SDS011;64089;51.478;5.692;2024-02-26T13:23:06;26.92;;;9.25;;
42832;SDS011;64089;51.478;5.692;2024-02-26T13:25:35;20.90;;;9.05;;
42832;SDS011;64089;51.478;5.692;2024-02-26T13:28:17;25.00;;;10.07;;
42832;SDS011;64089;51.478;5.692;2024-02-26T13:30:54;25.38;;;10.18;;
42832;SDS011;64089;51.478;5.692;2024-02-26T13:33:22;26.63;;;10.13;;
42832;SDS011;64089;51.478;5.692;2024-02-26T13:35:48;20.58;;;9.40;;
42832;SDS011;64089;51.478;5.692;2024-02-26T13:38:14;26.92;;;9.85;;
42832;SDS011;64089;51.478;5.692;2024-02-26T13:40:39;26.30;;;9.40;;
42832;SDS011;64089;51.478;5.692;2024-02-26T13:43:05;28.00;;;9.85;;
42832;SDS011;64089;51.478;5.692;2024-02-26T13:45:34;23.73;;;9.27;;
42832;SDS011;64089;51.478;5.692;2024-02-26T13:48:01;27.98;;;10.13;;
42832;SDS011;64089;51.478;5.692;2024-02-26T13:50:29;23.25;;;9.32;;
42832;SDS011;64089;51.478;5.692;2024-02-26T13:52:54;19.27;;;9.23;;
42832;SDS011;64089;51.478;5.692;2024-02-26T13:55:30;21.02;;;9.40;;
42832;SDS011;64089;51.478;5.692;2024-02-26T13:57:57;22.70;;;7.82;;
42832;SDS011;64089;51.478;5.692;2024-02-26T14:00:24;21.30;;;8.88;;
42832;SDS011;64089;51.478;5.692;2024-02-26T14:02:50;18.67;;;8.02;;
42832;SDS011;64089;51.478;5.692;2024-02-26T14:05:16;17.80;;;7.38;;
42832;SDS011;64089;51.478;5.692;2024-02-26T14:07:42;17.90;;;7.97;;
42832;SDS011;64089;51.478;5.692;2024-02-26T14:10:08;20.48;;;7.90;;
42832;SDS011;64089;51.478;5.692;2024-02-26T14:12:36;17.77;;;7.80;;
42832;SDS011;64089;51.478;5.692;2024-02-26T14:15:02;16.42;;;6.57;;
42832;SDS011;64089;51.478;5.692;2024-02-26T14:17:30;15.48;;;7.57;;
42832;SDS011;64089;51.478;5.692;2024-02-26T14:19:56;16.30;;;7.25;;
42832;SDS011;64089;51.478;5.692;2024-02-26T14:22:21;15.82;;;6.80;;
42832;SDS011;64089;51.478;5.692;2024-02-26T14:24:47;13.88;;;7.20;;
42832;SDS011;64089;51.478;5.692;2024-02-26T14:27:13;13.30;;;5.75;;
42832;SDS011;64089;51.478;5.692;2024-02-26T14:29:45;13.82;;;6.15;;
42832;SDS011;64089;51.478;5.692;2024-02-26T14:32:10;17.80;;;7.05;;
42832;SDS011;64089;51.478;5.692;2024-02-26T14:34:36;13.07;;;5.78;;
42832;SDS011;64089;51.478;5.692;2024-02-26T14:37:02;13.65;;;7.10;;
42832;SDS011;64089;51.478;5.692;2024-02-26T14:39:28;14.82;;;6.38;;
42832;SDS011;64089;51.478;5.692;2024-02-26T14:41:54;15.93;;;7.07;;
42832;SDS011;64089;51.478;5.692;2024-02-26T14:44:20;15.38;;;6.25;;
42832;SDS011;64089;51.478;5.692;2024-02-26T14:46:46;11.48;;;6.40;;
42832;SDS011;64089;51.478;5.692;2024-02-26T14:49:11;15.30;;;5.50;;